ACT        NSW        VIC        QLD        SA        WA        TAS        NT        INFO        CALC            by VK5ZD

  Atmospheric Gas Attenuation - ITU Rec 676-11   --------------- db/100km ---------------
Station Date Time Temp RH % AH g/m3 Dew Point Wind Direction Speed kph Gust kph Barometer mB Rainfall Since 9am 24GHz 47GHz 76GHz 122GHz 134GHz 241GHz
Alice Springs Airport 21 20:00 25 19 4.37 -0.2 13 15 1012.7 0 10.3 17.4 21.2 54.8 40.9 137.9
Arltunga 21 15:00 28.1 22 6.02 4.6 4 1012.4 0 13.6 18.8 25.2 65.7 55.3 188.9
Batchelor 21 20:00 28.5 74 20.69 23.4 13 20 1009.3 0 44.2 41.4 81.2 215.0 239.2 831.5
Borroloola 21 20:00 27.4 58 15.26 18.4 9 15 1011.1 0 32.8 32.3 58.4 154.3 164.3 570.3
Bradshaw 21 20:00 35.5 37 15.02 18.6 7 17 1008.6 0 31.7 29.0 51.7 136.7 144.9 503.9
Bradshaw-Angallari Valley (Defence) 21 20:00 35.1 36 14.31 17.8 7 11 1008 0 30.3 28.1 49.4 130.4 137.2 476.6
Bradshaw-Koolendong Valley 21 20:00 31.2 49 15.85 19.5 7 13 1011 0 33.8 31.8 58.0 153.2 164.0 569.9
Bulman 21 20:00 34.3 27 10.3 12.6 13 26 1009 0 22.1 22.8 36.2 95.1 93.5 323.7
Cape Wessel 21 20:00 25.9 80 19.37 22.2 30 33 1010.7 0 41.7 40.2 77.9 206.0 227.4 789.8
Central Arnhem Plateau 21 20:00 31.5 31 10.19 12.3 9 11 1008.9 0 22.1 23.3 37.0 97.4 95.5 330.6
Centre Island 21 20:00 26.8 81 20.62 23.3 15 19 1011 0 44.2 42.2 82.9 219.3 243.9 847.6
Channel Point 21 09:00 29 96 27.58 28.3 0 1012.5 17 58.7 55.2 115.7 306.6 351.5 1221.3
Charles Point 21 20:00 27.5 90 23.81 25.7 4 6 1009.5 0 50.9 48.0 97.7 258.9 292.7 1017.1
Croker Island Airport 21 20:00 26.8 78 19.85 22.6 7 13 1010.2 0 42.6 40.6 79.1 209.5 231.9 805.7
Curtin Springs 21 15:00 25 11 2.53 -7.8 0 1012.6 0 6.5 15.3 16.0 40.9 23.8 77.3
Daly Waters 21 20:00 30.8 45 14.25 17.5 22 43 1009.8 0 30.5 29.4 52.0 137.2 144.3 500.9
Darwin Airport 21 20:00 28.5 71 19.85 22.8 4 6 1009.7 0 42.4 39.8 77.4 204.7 226.6 787.6
Delamere 21 20:00 34.8 31 12.13 15.2 6 7 1007.2 0 25.9 25.0 41.9 110.5 112.6 390.6
Douglas River 21 20:00 31.5 54 17.76 21.1 13 22 1008.4 0 37.7 34.8 65.4 172.9 188.4 655.0
Dum In Mirrie 21 20:00 27.8 81 21.79 24.2 2 6 1009.2 0.2 46.6 43.8 87.3 231.0 258.7 899.0
Elliott 21 09:00 30.2 54 16.56 20.1 15 1012.5 0 35.3 33.4 61.7 163.1 175.8 610.8
Gove Airport 21 20:00 26.3 77 19.06 21.9 17 20 1011.3 0 41.0 39.5 76.0 201.2 221.5 769.6
Groote Eylandt Airport 21 20:00 26.9 71 18.17 21.2 9 13 1011.2 0 39.0 37.5 71.4 188.8 206.5 717.4
Jabiru 21 20:00 31.3 58 18.87 22.3 15 20 1009.2 0 40.1 36.8 70.3 186.0 204.4 710.6
Jervois 21 20:00 26.3 17 4.21 -0.7 13 20 1013 0 9.9 17.0 20.4 52.7 38.8 130.5
Kangaroo Flats (Defence) 21 20:00 28.7 70 19.78 22.7 4 7 1013.1 0.2 42.2 39.7 77.0 203.9 225.5 783.7
Lajamanu 21 20:00 32.6 14 4.88 1.7 19 28 1009.3 0 11.1 16.6 20.7 53.6 41.8 141.9
Maningrida Airport 21 20:00 27 74 19.05 22 11 13 1009.7 0 40.9 39.0 75.2 199.0 219.1 761.2
Mcarthur River Mine 21 20:00 30.6 41 12.85 16.2 17 24 1010.5 0 27.6 27.4 46.9 123.6 127.5 442.4
Mccluer Island 21 20:00 27.3 80 20.93 23.5 30 35 1009.9 0 44.8 42.4 83.7 221.6 247.0 858.2
Middle Point 21 20:00 28.1 70 19.14 22.3 7 9 1009.3 0.2 41.0 38.7 74.5 197.1 217.2 754.7
Milingimbi 21 20:00 27 76 19.56 22.4 7 13 1010.3 0 42.0 40.0 77.6 205.3 226.9 788.3
Mount Bundey North (Defence) 21 20:00 30.5 59 18.38 21.6 7 17 1013.1 0 39.1 36.4 69.1 182.9 200.1 695.8
Mount Bundey South (Defence) 21 20:00 31.4 55 17.99 21.3 11 19 1010.3 0 38.2 35.3 66.5 176.0 192.0 667.7
Murganella Airstrip 21 20:00 26.4 78 19.42 22.3 0 4 1009.8 0 41.7 40.0 77.5 205.1 226.5 786.8
Ngukurr Aws 21 20:00 31 52 16.65 20 19 24 1009.8 0 35.5 33.2 61.3 162.0 174.8 607.6
Noonamah 21 20:00 29.5 61 18.01 21.4 4 7 1009 0 38.4 36.0 68.2 180.4 197.0 684.6
Oenpelli Airport 21 20:00 29.4 58 17.03 20.3 11 17 1009.7 0 36.4 34.4 64.1 169.6 183.7 638.3
Pirlangimpi 21 20:00 26.3 79 19.56 22.4 0 2 1009.8 0.2 42.0 40.3 78.3 207.1 228.9 795.3
Point Fawcett 21 20:00 27.9 79 21.37 23.9 13 19 1009.9 0 45.7 43.0 85.2 225.5 251.8 875.2
Point Stuart 21 20:00 27.7 84 22.47 24.7 11 17 1009.4 0 48.0 45.2 90.7 240.3 270.0 938.1
Rabbit Flat 21 20:00 29.9 12 3.62 -2.6 13 19 1012.5 0 8.6 15.7 18.0 46.3 31.9 106.5
Tennant Creek 21 20:00 31.6 39 12.89 16 22 30 1009.5 0 27.6 27.1 46.4 122.4 126.3 438.2
Territory Grape Farm 21 20:00 28.9 18 5.14 2.2 9 13 1011.7 0 11.8 17.6 22.4 58.1 46.2 157.1
Tindal 21 20:00 34.3 36 13.73 17.5 6 7 1007.9 0 29.2 27.5 47.8 126.1 131.7 457.4
Victoria River Downs 21 20:00 34.5 30 11.56 14.4 1007.4 0 24.7 24.3 40.1 105.8 106.7 370.0
Wadeye (Port Keats) 21 20:00 28.4 74 20.57 23.3 6 11 1009.3 0 43.9 41.2 80.8 213.8 237.7 826.3
Walungurru (Kintore) 21 20:00 24.3 9 1.99 -10.6 13 17 1012.9 0 5.4 14.8 14.7 37.4 19.1 61.0
Warruwi 21 20:00 27.2 73 19 21.9 4 9 1010.3 0 40.7 38.9 74.8 197.9 217.8 756.9
Watarrka 21 09:00 19.8 18 3.07 -5.4 1015.4 0 7.7 16.8 18.6 47.9 30.6 100.8
Wave Hill (Kalkarindji) 21 09:00 32.8 40 14.09 17.8 7 1011.1 0 30.0 28.6 50.1 132.4 138.8 482.2
Yulara 21 20:00 19.7 10 1.7 -12.7 7 11 1013.9 0 4.9 15.2 14.7 37.3 17.5 54.8

Last Refresh: 21-Sep-2020 20:03:21

The information presented on this site is sourced from the Bureau of Meteorology.  Copyright in all material sourced from the Bureau of Meteorology resides with the Commonwealth of Australia.